Time;durP1;ratioP1;P1;durP2;ratioP2;P2;SDS_P1;SDS_P2;PMS_P1;PMS_P2;Temp;Humidity;BMP_temperature;BMP_pressure;BME280_temperature;BME280_humidity;BME280_pressure;Samples;Min_cycle;Max_cycle;Signal;HPM_P1;HPM_P2
2022/07/15 00:01:58;;;;;;;18.33;17.42;;;;;;;-141.02;100.00;55844.97;5073448;28;20290;-74
2022/07/15 00:04:25;;;;;;;19.00;18.00;;;;;;;-141.02;100.00;55844.97;5073595;28;20671;-74
2022/07/15 00:06:52;;;;;;;20.05;19.05;;;;;;;-141.02;100.00;55844.97;5073284;28;20195;-74
2022/07/15 00:10:13;;;;;;;19.58;18.58;;;;;;;-141.02;100.00;55844.97;5073522;28;20190;-74
2022/07/15 00:12:08;;;;;;;19.83;18.83;;;;;;;-141.02;100.00;55844.97;5072945;28;20194;-74
2022/07/15 00:14:35;;;;;;;19.38;18.38;;;;;;;-141.02;100.00;55844.97;5072654;28;20251;-74
2022/07/15 00:17:02;;;;;;;20.23;19.23;;;;;;;-141.02;100.00;55844.97;5073089;28;20201;-74
2022/07/15 00:19:30;;;;;;;19.48;18.48;;;;;;;-141.02;100.00;55844.97;5072975;28;20622;-74
2022/07/15 00:21:57;;;;;;;19.48;18.48;;;;;;;-141.02;100.00;55844.97;5072965;28;20743;-74
2022/07/15 00:24:25;;;;;;;19.80;18.80;;;;;;;-141.02;100.00;55844.97;5073160;28;20309;-74
2022/07/15 00:26:52;;;;;;;19.60;18.63;;;;;;;-141.02;100.00;55844.97;5073147;28;20714;-73
2022/07/15 00:29:19;;;;;;;18.70;17.80;;;;;;;-141.02;100.00;55844.97;5072853;28;20226;-73
2022/07/15 00:31:46;;;;;;;19.48;18.48;;;;;;;-141.02;100.00;55844.97;5072786;28;20754;-73
2022/07/15 00:34:13;;;;;;;19.63;18.63;;;;;;;-141.02;100.00;55844.97;5073041;28;20202;-73
2022/07/15 00:36:40;;;;;;;19.55;18.55;;;;;;;-141.02;100.00;55844.97;5072694;28;20720;-73
2022/07/15 00:39:09;;;;;;;19.92;18.92;;;;;;;-141.02;100.00;55844.97;5072992;28;20194;-74
2022/07/15 00:41:41;;;;;;;19.98;18.98;;;;;;;-141.02;100.00;55844.97;5072575;28;20199;-74
2022/07/15 00:44:09;;;;;;;19.48;18.48;;;;;;;-141.02;100.00;55844.97;5072439;28;20601;-74
2022/07/15 00:46:37;;;;;;;19.48;18.48;;;;;;;-141.02;100.00;55844.97;5072855;28;20198;-74
2022/07/15 00:49:07;;;;;;;20.60;19.50;;;;;;;-141.02;100.00;55844.97;5072765;28;20293;-73
2022/07/15 00:51:36;;;;;;;20.23;19.13;;;;;;;-141.02;100.00;55844.97;5073033;28;20203;-74
2022/07/15 00:54:05;;;;;;;19.98;18.88;;;;;;;-141.02;100.00;55844.97;5072676;28;20209;-73
2022/07/15 00:56:37;;;;;;;19.25;18.25;;;;;;;-141.02;100.00;55844.97;5072160;28;20237;-73
2022/07/15 00:59:06;;;;;;;19.38;18.38;;;;;;;-141.02;100.00;55844.97;5072634;28;20267;-73
2022/07/15 01:01:35;;;;;;;20.15;19.05;;;;;;;-141.02;100.00;55844.97;5072636;28;20195;-73
2022/07/15 01:04:04;;;;;;;20.42;19.33;;;;;;;-141.02;100.00;55844.97;5072434;28;20237;-74
2022/07/15 01:06:31;;;;;;;19.00;18.02;;;;;;;-141.02;100.00;55844.97;5072260;28;20226;-73
2022/07/15 01:08:59;;;;;;;19.13;18.13;;;;;;;-141.02;100.00;55844.97;5072555;28;20281;-73
2022/07/15 01:11:26;;;;;;;18.90;17.98;;;;;;;-141.02;100.00;55844.97;5072111;28;20201;-73
2022/07/15 01:13:54;;;;;;;18.00;17.10;;;;;;;-141.02;100.00;55844.97;5072140;28;20230;-73
2022/07/15 01:16:23;;;;;;;18.50;17.60;;;;;;;-141.02;100.00;55844.97;5072367;28;20286;-73
2022/07/15 01:18:50;;;;;;;18.00;17.10;;;;;;;-141.02;100.00;55844.97;5072370;28;20217;-73
2022/07/15 01:21:18;;;;;;;18.58;17.67;;;;;;;-141.02;100.00;55844.97;5072332;28;20281;-73
2022/07/15 01:23:45;;;;;;;19.10;18.10;;;;;;;-141.02;100.00;55844.97;5072250;28;20312;-72
2022/07/15 01:26:13;;;;;;;18.75;17.85;;;;;;;-141.02;100.00;55844.97;5071871;28;20198;-73
2022/07/15 01:28:40;;;;;;;19.25;18.33;;;;;;;-141.02;100.00;55844.97;5072250;28;20243;-73
2022/07/15 01:31:08;;;;;;;18.75;17.85;;;;;;;-141.02;100.00;55844.97;5072287;28;20252;-72
2022/07/15 01:33:36;;;;;;;18.60;17.70;;;;;;;-141.02;100.00;55844.97;5054284;28;20195;-73
2022/07/15 01:36:04;;;;;;;19.77;18.77;;;;;;;-141.02;100.00;55844.97;5072188;28;20205;-73
2022/07/15 01:38:32;;;;;;;19.38;18.48;;;;;;;-141.02;100.00;55844.97;5072204;28;20194;-73
2022/07/15 01:40:59;;;;;;;19.52;18.58;;;;;;;-141.02;100.00;55844.97;5071844;28;20238;-73
2022/07/15 01:43:26;;;;;;;18.77;17.88;;;;;;;-141.02;100.00;55844.97;5072081;28;20194;-73
2022/07/15 01:45:53;;;;;;;18.38;17.48;;;;;;;-141.02;100.00;55844.97;5072073;28;20204;-73
2022/07/15 01:51:04;;;;;;;18.05;17.20;;;;;;;-141.02;100.00;55844.97;5072137;28;20232;-73
2022/07/15 01:53:33;;;;;;;19.65;18.75;;;;;;;-141.02;100.00;55844.97;5071731;28;20198;-73
2022/07/15 01:56:00;;;;;;;17.73;16.92;;;;;;;-141.02;100.00;55844.97;5071998;28;20281;-73
2022/07/15 01:58:27;;;;;;;17.48;16.67;;;;;;;-141.02;100.00;55844.97;5071541;28;20226;-73
2022/07/15 02:00:54;;;;;;;19.20;18.30;;;;;;;-141.02;100.00;55844.97;5071939;28;20260;-73
2022/07/15 02:03:21;;;;;;;19.20;18.30;;;;;;;-141.02;100.00;55844.97;5071840;28;20260;-73
2022/07/15 02:05:48;;;;;;;19.05;18.15;;;;;;;-141.02;100.00;55844.97;5072483;28;20552;-73
2022/07/15 02:08:15;;;;;;;18.98;18.08;;;;;;;-141.02;100.00;55844.97;5071895;28;20194;-73
2022/07/15 02:10:43;;;;;;;18.45;17.65;;;;;;;-141.02;100.00;55844.97;5071894;28;20201;-73
2022/07/15 02:13:12;;;;;;;18.70;17.80;;;;;;;-141.02;100.00;55844.97;5071789;28;20198;-73
2022/07/15 02:15:40;;;;;;;18.20;17.40;;;;;;;-141.02;100.00;55844.97;5071556;28;20285;-73
2022/07/15 02:18:10;;;;;;;18.15;17.33;;;;;;;-141.02;100.00;55844.97;5071487;28;20679;-72
2022/07/15 02:20:37;;;;;;;17.67;16.88;;;;;;;-141.02;100.00;55844.97;5071442;28;20588;-73
2022/07/15 02:23:05;;;;;;;17.92;17.13;;;;;;;-141.02;100.00;55844.97;5071442;28;20194;-74
2022/07/15 02:25:33;;;;;;;17.45;16.65;;;;;;;-141.02;100.00;55844.97;5071644;28;20313;-74
2022/07/15 02:28:04;;;;;;;17.80;17.00;;;;;;;-141.02;100.00;55844.97;5071399;28;20669;-74
2022/07/15 02:30:34;;;;;;;17.30;16.50;;;;;;;-141.02;100.00;55844.97;5071939;28;20191;-73
2022/07/15 02:33:01;;;;;;;16.23;15.43;;;;;;;-141.02;100.00;55844.97;5071608;28;20286;-73
2022/07/15 02:35:29;;;;;;;17.05;16.25;;;;;;;-141.02;100.00;55844.97;5071278;28;20681;-73
2022/07/15 02:37:56;;;;;;;16.40;15.65;;;;;;;-141.02;100.00;55844.97;5073000;28;20206;-73
2022/07/15 02:40:23;;;;;;;16.42;15.63;;;;;;;-141.02;100.00;55844.97;5074975;28;20379;-73
2022/07/15 02:42:52;;;;;;;16.40;15.60;;;;;;;-141.02;100.00;55844.97;5074874;28;20241;-73
2022/07/15 02:45:23;;;;;;;16.00;15.30;;;;;;;-141.02;100.00;55844.97;5075098;28;20262;-73
2022/07/15 02:47:51;;;;;;;16.27;15.57;;;;;;;-141.02;100.00;55844.97;5075151;28;20190;-73
2022/07/15 02:50:18;;;;;;;16.17;15.48;;;;;;;-141.02;100.00;55844.97;5074995;28;20194;-73
2022/07/15 02:52:46;;;;;;;16.30;15.60;;;;;;;-141.02;100.00;55844.97;5075084;28;20281;-73
2022/07/15 02:55:15;;;;;;;16.90;16.10;;;;;;;-141.02;100.00;55844.97;5074950;28;20289;-73
2022/07/15 02:57:42;;;;;;;16.85;16.05;;;;;;;-141.02;100.00;55844.97;5074768;28;20667;-73
2022/07/15 03:00:12;;;;;;;16.90;16.20;;;;;;;-141.02;100.00;55844.97;5074576;28;20205;-73
2022/07/15 03:02:41;;;;;;;16.55;15.85;;;;;;;-141.02;100.00;55844.97;5074877;28;20194;-73
2022/07/15 03:05:09;;;;;;;16.70;15.98;;;;;;;-141.02;100.00;55844.97;5074462;28;20317;-73
2022/07/15 03:07:36;;;;;;;17.10;16.40;;;;;;;-141.02;100.00;55844.97;5074784;28;20190;-73
2022/07/15 03:10:05;;;;;;;17.25;16.45;;;;;;;-141.02;100.00;55844.97;5074388;28;20252;-74
2022/07/15 03:12:32;;;;;;;17.25;16.45;;;;;;;-141.02;100.00;55844.97;5074864;28;20229;-73
2022/07/15 03:15:00;;;;;;;16.95;16.15;;;;;;;-141.02;100.00;55844.97;5074612;28;20194;-73
2022/07/15 03:17:27;;;;;;;16.20;15.50;;;;;;;-141.02;100.00;55844.97;5074580;28;20195;-74
2022/07/15 03:19:56;;;;;;;16.27;15.57;;;;;;;-141.02;100.00;55844.97;5074562;28;20191;-73
2022/07/15 03:22:23;;;;;;;16.42;15.73;;;;;;;-141.02;100.00;55844.97;5074789;28;20608;-73
2022/07/15 03:24:50;;;;;;;16.58;15.88;;;;;;;-141.02;100.00;55844.97;5074115;28;20226;-74
2022/07/15 03:27:18;;;;;;;15.98;15.27;;;;;;;-141.02;100.00;55844.97;5074401;28;20206;-74
2022/07/15 03:29:45;;;;;;;15.80;15.10;;;;;;;-141.02;100.00;55844.97;5074303;28;20298;-74
2022/07/15 03:32:15;;;;;;;16.27;15.57;;;;;;;-141.02;100.00;55844.97;5074339;28;20281;-74
2022/07/15 03:34:43;;;;;;;16.70;16.00;;;;;;;-141.02;100.00;55844.97;5074221;28;20675;-73
2022/07/15 03:37:12;;;;;;;16.40;15.70;;;;;;;-141.02;100.00;55844.97;5073898;28;20707;-73
2022/07/15 03:39:39;;;;;;;16.20;15.50;;;;;;;-141.02;100.00;55844.97;5073828;28;20687;-73
2022/07/15 03:42:06;;;;;;;16.10;15.40;;;;;;;-141.02;100.00;55844.97;5074116;28;20201;-73
2022/07/15 03:44:33;;;;;;;16.60;15.80;;;;;;;-141.02;100.00;55844.97;5074038;28;20226;-74
2022/07/15 03:47:00;;;;;;;17.00;16.20;;;;;;;-141.02;100.00;55844.97;5073999;28;20221;-74
2022/07/15 03:49:27;;;;;;;17.63;16.83;;;;;;;-141.02;100.00;55844.97;5072783;28;20652;-73
2022/07/15 03:51:54;;;;;;;17.73;16.83;;;;;;;-141.02;100.00;55844.97;5073604;28;20248;-74
2022/07/15 03:54:23;;;;;;;18.20;17.30;;;;;;;-141.02;100.00;55844.97;5073800;28;20290;-74
2022/07/15 03:56:50;;;;;;;17.77;16.92;;;;;;;-141.02;100.00;55844.97;5073353;28;20321;-74
2022/07/15 03:59:17;;;;;;;16.55;15.75;;;;;;;-141.02;100.00;55844.97;5073465;28;20673;-74
2022/07/15 04:01:44;;;;;;;16.50;15.70;;;;;;;-141.02;100.00;55844.97;5073452;28;20198;-74
2022/07/15 04:04:11;;;;;;;17.02;16.13;;;;;;;-141.02;100.00;55844.97;5073291;28;20202;-73
2022/07/15 04:06:38;;;;;;;17.50;16.52;;;;;;;-141.02;100.00;55844.97;5073327;28;20617;-74
2022/07/15 04:09:05;;;;;;;17.90;16.90;;;;;;;-141.02;100.00;55844.97;5073552;28;20198;-74
2022/07/15 04:11:34;;;;;;;17.65;16.65;;;;;;;-141.02;100.00;55844.97;5073545;28;20285;-74
2022/07/15 04:14:01;;;;;;;18.63;17.52;;;;;;;-141.02;100.00;55844.97;5073209;28;20281;-74
2022/07/15 04:16:28;;;;;;;18.15;17.10;;;;;;;-141.02;100.00;55844.97;5073385;28;20230;-74
2022/07/15 04:18:55;;;;;;;17.77;16.77;;;;;;;-141.02;100.00;55844.97;5073052;28;20234;-74
2022/07/15 04:21:22;;;;;;;18.38;17.38;;;;;;;-141.02;100.00;55844.97;5072994;28;20191;-74
2022/07/15 04:23:49;;;;;;;18.05;17.05;;;;;;;-141.02;100.00;55844.97;5073208;28;20679;-74
2022/07/15 04:26:16;;;;;;;18.10;17.10;;;;;;;-141.02;100.00;55844.97;5073174;28;20226;-74
2022/07/15 04:28:45;;;;;;;18.30;17.30;;;;;;;-141.02;100.00;55844.97;5073131;28;20194;-74
2022/07/15 04:31:12;;;;;;;18.15;17.15;;;;;;;-141.02;100.00;55844.97;5073183;28;20245;-74
2022/07/15 04:33:39;;;;;;;18.55;17.45;;;;;;;-141.02;100.00;55844.97;5072765;28;20580;-73
2022/07/15 04:36:06;;;;;;;18.70;17.60;;;;;;;-141.02;100.00;55844.97;5073060;28;20281;-74
2022/07/15 04:38:33;;;;;;;18.48;17.38;;;;;;;-141.02;100.00;55844.97;5072990;28;20251;-73
2022/07/15 04:41:00;;;;;;;18.70;17.60;;;;;;;-141.02;100.00;55844.97;5072657;28;20194;-74
2022/07/15 04:43:27;;;;;;;19.15;17.95;;;;;;;-141.02;100.00;55844.97;5072936;28;20199;-74
2022/07/15 04:45:56;;;;;;;19.52;18.33;;;;;;;-141.02;100.00;55844.97;5072745;28;20236;-74
2022/07/15 04:51:07;;;;;;;20.35;19.15;;;;;;;-141.02;100.00;55844.97;5073496;28;20186;-73
2022/07/15 04:53:34;;;;;;;20.38;19.17;;;;;;;-141.02;100.00;55844.97;5072780;28;20248;-74
2022/07/15 04:56:01;;;;;;;20.45;19.15;;;;;;;-141.02;100.00;55844.97;5072380;28;20222;-74
2022/07/15 04:58:28;;;;;;;21.10;19.80;;;;;;;-141.02;100.00;55844.97;5072426;28;20245;-73
2022/07/15 05:00:57;;;;;;;20.40;19.10;;;;;;;-141.02;100.00;55844.97;5072310;28;20572;-74
2022/07/15 05:03:24;;;;;;;21.20;19.90;;;;;;;-141.02;100.00;55844.97;5072639;28;20281;-74
2022/07/15 05:05:51;;;;;;;19.83;18.63;;;;;;;-141.02;100.00;55844.97;5072741;28;20226;-74
2022/07/15 05:08:20;;;;;;;20.88;19.58;;;;;;;-141.02;100.00;55844.97;5072235;28;20201;-74
2022/07/15 05:10:47;;;;;;;20.75;19.45;;;;;;;-141.02;100.00;55844.97;5072529;28;20657;-74
2022/07/15 05:13:14;;;;;;;20.63;19.33;;;;;;;-141.02;100.00;55844.97;5072463;28;20233;-74
2022/07/15 05:15:41;;;;;;;21.08;19.77;;;;;;;-141.02;100.00;55844.97;5072120;28;20191;-74
2022/07/15 05:18:10;;;;;;;20.75;19.45;;;;;;;-141.02;100.00;55844.97;5072440;28;20248;-73
2022/07/15 05:20:37;;;;;;;20.80;19.50;;;;;;;-141.02;100.00;55844.97;5072405;28;20285;-73
2022/07/15 05:23:04;;;;;;;21.02;19.73;;;;;;;-141.02;100.00;55844.97;5072386;28;20632;-73
2022/07/15 05:25:31;;;;;;;20.73;19.50;;;;;;;-141.02;100.00;55844.97;5071933;28;20309;-72
2022/07/15 05:27:58;;;;;;;20.75;19.55;;;;;;;-141.02;100.00;55844.97;5072326;28;20297;-73
2022/07/15 05:30:25;;;;;;;20.35;19.15;;;;;;;-141.02;100.00;55844.97;5072484;28;20217;-73
2022/07/15 05:32:52;;;;;;;20.83;19.63;;;;;;;-141.02;100.00;55844.97;5072257;28;20278;-72
2022/07/15 05:35:21;;;;;;;19.80;18.60;;;;;;;-141.02;100.00;55844.97;5072224;28;20198;-72
2022/07/15 05:37:48;;;;;;;20.25;19.05;;;;;;;-141.02;100.00;55844.97;5071885;28;20248;-72
2022/07/15 05:40:16;;;;;;;19.80;18.60;;;;;;;-141.02;100.00;55844.97;5071906;28;20198;-73
2022/07/15 05:42:43;;;;;;;18.80;17.70;;;;;;;-141.02;100.00;55844.97;5071838;28;20190;-73
2022/07/15 05:45:11;;;;;;;18.92;17.83;;;;;;;-141.02;100.00;55844.97;5072071;28;20222;-72
2022/07/15 05:47:38;;;;;;;19.42;18.33;;;;;;;-141.02;100.00;55844.97;5072297;28;20229;-72
2022/07/15 05:50:06;;;;;;;19.58;18.38;;;;;;;-141.02;100.00;55844.97;5071826;28;20755;-72
2022/07/15 05:52:34;;;;;;;18.33;17.23;;;;;;;-141.02;100.00;55844.97;5071800;28;20194;-72
2022/07/15 05:55:02;;;;;;;18.40;17.30;;;;;;;-141.02;100.00;55844.97;5071679;28;20209;-73
2022/07/15 05:57:29;;;;;;;18.52;17.42;;;;;;;-141.02;100.00;55844.97;5071796;28;20234;-72
2022/07/15 05:59:56;;;;;;;18.20;17.10;;;;;;;-141.02;100.00;55844.97;5071668;28;20294;-72
2022/07/15 06:02:23;;;;;;;17.95;16.95;;;;;;;-141.02;100.00;55844.97;5071698;28;20194;-73
2022/07/15 06:04:50;;;;;;;18.50;17.40;;;;;;;-141.02;100.00;55844.97;5071560;28;20200;-72
2022/07/15 06:07:17;;;;;;;18.38;17.38;;;;;;;-141.02;100.00;55844.97;5071550;28;20640;-72
2022/07/15 06:09:46;;;;;;;18.45;17.45;;;;;;;-141.02;100.00;55844.97;5071592;28;20670;-72
2022/07/15 06:12:13;;;;;;;18.77;17.77;;;;;;;-141.02;100.00;55844.97;5072429;28;20202;-72
2022/07/15 06:14:40;;;;;;;19.38;18.27;;;;;;;-141.02;100.00;55844.97;5075530;28;20201;-73
2022/07/15 06:17:07;;;;;;;19.20;18.10;;;;;;;-141.02;100.00;55844.97;5075722;28;20277;-73
2022/07/15 06:19:34;;;;;;;18.75;17.65;;;;;;;-141.02;100.00;55844.97;5075706;28;20230;-71
2022/07/15 06:22:01;;;;;;;19.60;18.50;;;;;;;-141.02;100.00;55844.97;5075351;28;20288;-74
2022/07/15 06:24:28;;;;;;;19.40;18.30;;;;;;;-141.02;100.00;55844.97;5075557;28;20282;-73
2022/07/15 06:26:57;;;;;;;18.80;17.70;;;;;;;-141.02;100.00;55844.97;5075449;28;20225;-72
2022/07/15 06:29:24;;;;;;;18.92;17.83;;;;;;;-141.02;100.00;55844.97;5075490;28;20229;-72
2022/07/15 06:31:51;;;;;;;20.63;19.33;;;;;;;-141.02;100.00;55844.97;5075472;28;20199;-72
2022/07/15 06:34:18;;;;;;;18.40;17.30;;;;;;;-141.02;100.00;55844.97;5075056;28;20198;-72
2022/07/15 06:36:45;;;;;;;18.98;17.88;;;;;;;-141.02;100.00;55844.97;5075383;28;20228;-72
2022/07/15 06:39:12;;;;;;;17.88;16.88;;;;;;;-141.02;100.00;55844.97;5075304;28;20191;-73
2022/07/15 06:41:39;;;;;;;18.70;17.60;;;;;;;-141.02;100.00;55844.97;5075278;28;20233;-73
2022/07/15 06:44:08;;;;;;;18.60;17.50;;;;;;;-141.02;100.00;55844.97;5074973;28;20725;-73
2022/07/15 06:46:35;;;;;;;18.38;17.27;;;;;;;-141.02;100.00;55844.97;5074790;28;20704;-72
2022/07/15 06:49:02;;;;;;;18.55;17.55;;;;;;;-141.02;100.00;55844.97;5075160;28;20230;-74
2022/07/15 06:51:29;;;;;;;18.70;17.60;;;;;;;-141.02;100.00;55844.97;5075037;28;20198;-72
2022/07/15 06:53:56;;;;;;;18.27;17.27;;;;;;;-141.02;100.00;55844.97;5075293;28;20194;-74
2022/07/15 06:56:23;;;;;;;18.63;17.52;;;;;;;-141.02;100.00;55844.97;5074733;28;20253;-73
2022/07/15 06:58:50;;;;;;;18.92;17.83;;;;;;;-141.02;100.00;55844.97;5074713;28;20644;-72
2022/07/15 07:01:18;;;;;;;18.60;17.50;;;;;;;-141.02;100.00;55844.97;5074607;28;20198;-73
2022/07/15 07:03:46;;;;;;;19.00;17.90;;;;;;;-141.02;100.00;55844.97;5074594;28;20672;-73
2022/07/15 07:06:13;;;;;;;18.92;17.83;;;;;;;-141.02;100.00;55844.97;5074429;28;20321;-73
2022/07/15 07:08:40;;;;;;;18.73;17.63;;;;;;;-141.02;100.00;55844.97;5074797;28;20198;-72
2022/07/15 07:11:07;;;;;;;19.02;17.92;;;;;;;-141.02;100.00;55844.97;5074697;28;20198;-74
2022/07/15 07:13:34;;;;;;;18.90;17.80;;;;;;;-141.02;100.00;55844.97;5074644;28;20659;-72
2022/07/15 07:16:01;;;;;;;19.25;18.15;;;;;;;-141.02;100.00;55844.97;5074399;28;20194;-72
2022/07/15 07:18:30;;;;;;;18.77;17.67;;;;;;;-141.02;100.00;55844.97;5074615;28;20277;-72
2022/07/15 07:20:57;;;;;;;18.60;17.50;;;;;;;-141.02;100.00;55844.97;5074589;28;20201;-72
2022/07/15 07:23:26;;;;;;;18.60;17.50;;;;;;;-141.02;100.00;55844.97;5073910;28;20198;-73
2022/07/15 07:25:53;;;;;;;19.00;17.90;;;;;;;-141.02;100.00;55844.97;5074387;28;20277;-72
2022/07/15 07:28:20;;;;;;;18.83;17.73;;;;;;;-141.02;100.00;55844.97;5074422;28;20221;-73
2022/07/15 07:30:49;;;;;;;18.67;17.58;;;;;;;-141.02;100.00;55844.97;5074413;28;20226;-72
2022/07/15 07:33:16;;;;;;;18.80;17.70;;;;;;;-141.02;100.00;55844.97;5074345;28;20194;-73
2022/07/15 07:35:46;;;;;;;19.05;17.95;;;;;;;-141.02;100.00;55844.97;5074191;28;20232;-74
2022/07/15 07:38:13;;;;;;;19.80;18.60;;;;;;;-141.02;100.00;55844.97;5073942;28;20195;-71
2022/07/15 07:40:40;;;;;;;19.08;17.98;;;;;;;-141.02;100.00;55844.97;5074436;28;20205;-73
2022/07/15 07:43:07;;;;;;;19.25;18.05;;;;;;;-141.02;100.00;55844.97;5074106;28;20198;-73
2022/07/15 07:45:34;;;;;;;19.23;18.13;;;;;;;-141.02;100.00;55844.97;5074039;28;20229;-71
2022/07/15 07:48:01;;;;;;;19.10;18.00;;;;;;;-141.02;100.00;55844.97;5074016;28;20198;-71
2022/07/15 07:50:28;;;;;;;19.35;18.20;;;;;;;-141.02;100.00;55844.97;5073687;28;20577;-72
2022/07/15 07:52:57;;;;;;;19.05;17.95;;;;;;;-141.02;100.00;55844.97;5073761;28;20194;-71
2022/07/15 07:55:24;;;;;;;19.15;18.05;;;;;;;-141.02;100.00;55844.97;5074170;28;20244;-72
2022/07/15 07:57:53;;;;;;;19.83;18.63;;;;;;;-141.02;100.00;55844.97;5073514;28;20234;-72
2022/07/15 08:00:21;;;;;;;19.20;18.10;;;;;;;-141.02;100.00;55844.97;5073465;28;20206;-71
2022/07/15 08:02:49;;;;;;;19.50;18.40;;;;;;;-141.02;100.00;55844.97;5073763;28;20194;-71
2022/07/15 08:05:17;;;;;;;19.27;18.17;;;;;;;-141.02;100.00;55844.97;5073581;28;20201;-72
2022/07/15 08:07:44;;;;;;;19.88;18.67;;;;;;;-141.02;100.00;55844.97;5073692;28;20200;-72
2022/07/15 08:10:13;;;;;;;19.73;18.52;;;;;;;-141.02;100.00;55844.97;5073276;28;20285;-72
2022/07/15 08:12:41;;;;;;;19.77;18.58;;;;;;;-141.02;100.00;55844.97;5073579;28;20646;-72
2022/07/15 08:15:11;;;;;;;19.67;18.48;;;;;;;-141.02;100.00;55844.97;5073170;28;20583;-72
2022/07/15 08:17:38;;;;;;;19.60;18.40;;;;;;;-141.02;100.00;55844.97;5073206;28;20187;-73
2022/07/15 08:20:07;;;;;;;19.65;18.45;;;;;;;-141.02;100.00;55844.97;5073141;28;20237;-71
2022/07/15 08:22:34;;;;;;;20.17;18.88;;;;;;;-141.02;100.00;55844.97;5073309;28;20553;-73
2022/07/15 08:25:01;;;;;;;20.42;19.13;;;;;;;-141.02;100.00;55844.97;5073287;28;20201;-73
2022/07/15 08:27:30;;;;;;;19.98;18.77;;;;;;;-141.02;100.00;55844.97;5073153;28;20236;-72
2022/07/15 08:29:57;;;;;;;19.45;18.25;;;;;;;-141.02;100.00;55844.97;5072970;28;20683;-73
2022/07/15 08:32:25;;;;;;;19.90;18.60;;;;;;;-141.02;100.00;55844.97;5073047;28;20194;-73
2022/07/15 08:34:52;;;;;;;19.48;18.23;;;;;;;-141.02;100.00;55844.97;5072492;28;20205;-72
2022/07/15 08:37:19;;;;;;;19.80;18.50;;;;;;;-141.02;100.00;55844.97;5073022;28;20292;-72
2022/07/15 08:39:46;;;;;;;20.48;19.17;;;;;;;-141.02;100.00;55844.97;5072942;28;20285;-71
2022/07/15 08:42:14;;;;;;;20.08;18.77;;;;;;;-141.02;100.00;55844.97;5073017;28;20667;-74
2022/07/15 08:44:42;;;;;;;19.88;18.58;;;;;;;-141.02;100.00;55844.97;5072597;28;20203;-72
2022/07/15 08:47:11;;;;;;;19.95;18.65;;;;;;;-141.02;100.00;55844.97;5072757;28;20593;-74
2022/07/15 08:49:40;;;;;;;19.67;18.38;;;;;;;-141.02;100.00;55844.97;5072834;28;20280;-72
2022/07/15 08:52:07;;;;;;;19.42;18.13;;;;;;;-141.02;100.00;55844.97;5072820;28;20205;-72
2022/07/15 08:54:35;;;;;;;19.55;18.25;;;;;;;-141.02;100.00;55844.97;5072480;28;20607;-73
2022/07/15 08:57:02;;;;;;;19.60;18.30;;;;;;;-141.02;100.00;55844.97;5072187;28;20222;-72
2022/07/15 08:59:30;;;;;;;19.52;18.23;;;;;;;-141.02;100.00;55844.97;5072398;28;20281;-72
2022/07/15 09:01:59;;;;;;;19.85;18.55;;;;;;;-141.02;100.00;55844.97;5072317;28;20195;-73
2022/07/15 09:04:26;;;;;;;20.00;18.70;;;;;;;-141.02;100.00;55844.97;5072571;28;20277;-71
2022/07/15 09:06:53;;;;;;;19.90;18.60;;;;;;;-141.02;100.00;55844.97;5072720;28;20230;-72
2022/07/15 09:09:28;;;;;;;19.88;18.58;;;;;;;-141.02;100.00;55844.97;5072283;28;20237;-73
2022/07/15 09:11:57;;;;;;;19.77;18.48;;;;;;;-141.02;47.72;80987.91;5072272;28;20564;-73
2022/07/15 09:14:28;;;;;;;20.15;18.85;;;;;;;-141.02;47.37;80941.31;5072401;28;20614;-74
2022/07/15 09:17:24;;;;;;;19.73;18.42;;;;;;;-141.02;46.77;80867.53;5072519;28;20190;-72
2022/07/15 09:19:59;;;;;;;20.17;18.88;;;;;;;-141.02;46.15;80834.53;5065803;28;20264;-74
2022/07/15 09:22:28;;;;;;;20.00;18.67;;;;;;;-141.02;45.60;80766.59;5072078;28;20290;-73
2022/07/15 09:25:04;;;;;;;20.08;18.67;;;;;;;-141.02;45.40;80708.34;5072055;28;20705;-73
2022/07/15 09:27:32;;;;;;;20.05;18.65;;;;;;;-141.02;45.68;80731.66;5071934;28;20593;-74
2022/07/15 09:36:04;;;;;;;20.08;18.67;;;;;;;-141.02;45.23;80696.69;5072656;28;20193;-72
2022/07/15 09:38:33;;;;;;;20.02;18.63;;;;;;;-141.02;45.57;80754.94;5071956;28;20196;-72
2022/07/15 09:41:01;;;;;;;20.20;18.80;;;;;;;-141.02;46.41;80871.41;5072167;28;20198;-72
2022/07/15 09:43:28;;;;;;;19.95;18.65;;;;;;;-141.02;47.18;80873.34;5072230;28;20222;-73
2022/07/15 09:46:00;;;;;;;20.45;19.05;;;;;;;-141.02;100.00;55844.97;5072125;28;20229;-72
2022/07/15 09:48:29;;;;;;;20.20;18.90;;;;;;;-141.02;100.00;55844.97;5076334;28;20206;-73
2022/07/15 09:51:01;;;;;;;20.02;18.73;;;;;;;-141.02;100.00;55844.97;5075923;28;20684;-74
2022/07/15 09:53:29;;;;;;;20.00;18.70;;;;;;;-141.02;100.00;55844.97;5075898;28;20194;-74
2022/07/15 09:55:56;;;;;;;20.13;18.73;;;;;;;-141.02;100.00;55844.97;5076156;28;20202;-72
2022/07/15 09:58:23;;;;;;;20.40;19.00;;;;;;;-141.02;100.00;55844.97;5075662;28;20237;-70
2022/07/15 10:00:52;;;;;;;20.55;19.15;;;;;;;-141.02;100.00;55844.97;5076087;28;20195;-71
2022/07/15 10:03:22;;;;;;;19.92;18.63;;;;;;;-141.02;100.00;55844.97;5075765;28;20209;-71
2022/07/15 10:05:54;;;;;;;19.58;18.27;;;;;;;-141.02;100.00;55844.97;5075918;28;20205;-70
2022/07/15 10:08:22;;;;;;;19.98;18.67;;;;;;;-141.02;100.00;55844.97;5076001;28;20194;-72
2022/07/15 10:10:51;;;;;;;20.35;18.95;;;;;;;-141.02;100.00;55844.97;5075948;28;20191;-72
2022/07/15 10:13:43;;;;;;;19.65;18.35;;;;;;;-141.02;100.00;55844.97;5075860;28;20194;-70
2022/07/15 10:16:30;;;;;;;19.70;18.40;;;;;;;-141.02;100.00;55844.97;5075809;28;20191;-73
2022/07/15 10:19:09;;;;;;;20.63;19.23;;;;;;;-141.02;100.00;55844.97;5076127;28;20623;-72
2022/07/15 10:21:46;;;;;;;19.90;18.60;;;;;;;-141.02;100.00;55844.97;5075454;28;20640;-72
2022/07/15 10:24:27;;;;;;;20.10;18.80;;;;;;;-141.02;100.00;55844.97;5075660;28;20243;-74
2022/07/15 10:27:06;;;;;;;20.77;19.48;;;;;;;-141.02;100.00;55844.97;5075268;28;20303;-72
2022/07/15 10:29:34;;;;;;;20.77;19.48;;;;;;;-141.02;100.00;55844.97;5075485;28;20552;-74
2022/07/15 10:32:02;;;;;;;20.42;19.13;;;;;;;-141.02;100.00;55844.97;5075133;28;20244;-71
2022/07/15 10:34:33;;;;;;;20.33;19.02;;;;;;;-141.02;100.00;55844.97;5075057;28;20194;-74
2022/07/15 10:37:06;;;;;;;20.63;19.33;;;;;;;-141.02;100.00;55844.97;5075402;28;20277;-73
2022/07/15 10:40:07;;;;;;;21.05;19.65;;;;;;;-141.02;100.00;55844.97;5075047;28;20187;-73
2022/07/15 10:43:00;;;;;;;20.40;19.10;;;;;;;-141.02;100.00;55844.97;5013317;28;20271;-71
2022/07/15 10:45:27;;;;;;;20.42;19.13;;;;;;;-141.02;100.00;55844.97;5073083;28;20244;-73
2022/07/15 10:48:27;;;;;;;20.70;19.40;;;;;;;-141.02;100.00;55844.97;5074796;28;20730;-72
2022/07/15 10:50:54;;;;;;;21.10;19.75;;;;;;;-141.02;100.00;55844.97;5074869;28;20183;-72
2022/07/15 10:53:25;;;;;;;21.33;20.00;;;;;;;-141.02;100.00;55844.97;5075133;28;20226;-72
2022/07/15 10:55:53;;;;;;;20.77;19.48;;;;;;;-141.02;100.00;55844.97;5074709;28;20205;-72
2022/07/15 10:58:20;;;;;;;21.13;19.73;;;;;;;-141.02;100.00;55844.97;5073543;28;20329;-71
2022/07/15 11:00:48;;;;;;;21.20;19.90;;;;;;;-141.02;100.00;55844.97;5074889;28;20260;-71
2022/07/15 11:03:17;;;;;;;20.85;19.55;;;;;;;-141.02;100.00;55844.97;5074619;28;20730;-74
2022/07/15 11:06:05;;;;;;;20.85;19.55;;;;;;;-141.02;100.00;55844.97;5074850;28;20650;-70
2022/07/15 11:08:51;;;;;;;20.85;19.48;;;;;;;-141.02;100.00;55844.97;5074879;28;20198;-73
2022/07/15 11:11:47;;;;;;;20.55;19.25;;;;;;;-141.02;44.42;80465.69;5074757;28;20309;-73
2022/07/15 11:14:44;;;;;;;20.63;19.33;;;;;;;-141.02;43.88;80428.81;5074419;28;20210;-74